Time;durP1;ratioP1;P1;durP2;ratioP2;P2;SDS_P1;SDS_P2;PMS_P1;PMS_P2;Temp;Humidity;BMP_temperature;BMP_pressure;BME280_temperature;BME280_humidity;BME280_pressure;Samples;Min_cycle;Max_cycle;Signal;HPM_P1;HPM_P2
2022/01/24 05:04:57;;;;;;;20.05;11.38;;;;;;;-1.98;54.99;102348.47;5607120;31;76501;-57
2022/01/24 05:08:04;;;;;;;21.12;11.70;;;;;;;-1.98;54.99;102348.47;5583555;31;33355;-56
2022/01/24 05:11:10;;;;;;;21.23;12.77;;;;;;;-2.49;55.79;102355.94;5583884;31;33265;-58
2022/01/24 05:24:15;;;;;;;27.87;13.50;;;;;;;-2.45;55.57;102370.44;5583457;31;34088;-56
2022/01/24 05:27:18;;;;;;;24.52;12.70;;;;;;;-2.37;55.17;102369.72;5583637;31;34175;-57
2022/01/24 05:30:20;;;;;;;25.20;13.55;;;;;;;-2.20;56.51;102378.59;5583331;32;33642;-56
2022/01/24 05:33:22;;;;;;;22.92;12.35;;;;;;;-2.26;55.13;102381.81;5582238;31;33494;-56
2022/01/24 05:36:24;;;;;;;22.87;13.88;;;;;;;-2.53;57.19;102387.91;5583249;31;33362;-56
2022/01/24 05:39:27;;;;;;;25.23;13.10;;;;;;;-2.81;57.47;102389.63;5583160;31;33754;-56
2022/01/24 05:42:29;;;;;;;21.45;12.40;;;;;;;-2.43;56.04;102380.78;5583395;31;33681;-56
2022/01/24 05:45:32;;;;;;;22.45;14.32;;;;;;;-2.38;70.35;102396.97;5568352;31;33601;-57
2022/01/24 05:48:35;;;;;;;24.95;13.68;;;;;;;-2.51;57.10;102391.22;5563760;32;33562;-56
2022/01/24 05:51:37;;;;;;;24.77;13.02;;;;;;;-2.66;57.64;102406.59;5562968;32;33816;-56
2022/01/24 05:54:40;;;;;;;22.50;12.68;;;;;;;-2.50;56.59;102400.75;5563563;32;34227;-56
2022/01/24 05:57:43;;;;;;;22.48;12.65;;;;;;;-2.48;56.45;102394.38;5563620;32;34460;-57
2022/01/24 06:00:45;;;;;;;20.85;12.75;;;;;;;-2.48;55.89;102401.44;5563799;32;34161;-57
2022/01/24 06:03:48;;;;;;;23.17;12.02;;;;;;;-2.37;55.29;102412.56;5563561;32;33646;-55
2022/01/24 06:06:50;;;;;;;21.20;12.55;;;;;;;-2.45;60.05;102415.09;5563654;32;34329;-55
2022/01/24 06:09:53;;;;;;;22.33;14.50;;;;;;;-2.57;57.12;102416.25;5562591;32;34290;-54
2022/01/24 06:12:55;;;;;;;21.55;12.70;;;;;;;-2.29;55.40;102416.25;5563488;32;33644;-54
2022/01/24 06:15:57;;;;;;;23.25;14.55;;;;;;;-2.38;55.34;102425.84;5551485;32;33704;-55
2022/01/24 06:19:00;;;;;;;23.67;13.77;;;;;;;-2.34;55.18;102419.34;5549897;32;33583;-55
2022/01/24 06:22:03;;;;;;;25.45;14.82;;;;;;;-2.38;55.31;102418.81;5550314;32;33654;-54
2022/01/24 06:25:07;;;;;;;26.42;14.60;;;;;;;-2.64;56.68;102425.66;5550506;32;33759;-55
2022/01/24 06:28:18;;;;;;;23.17;13.98;;;;;;;-2.68;62.52;102430.37;5550033;32;34285;-54
2022/01/24 06:31:20;;;;;;;23.23;14.18;;;;;;;-2.52;58.62;102432.38;5550636;32;33682;-54
2022/01/24 06:34:23;;;;;;;23.77;13.90;;;;;;;-2.61;56.72;102436.72;5549490;32;33771;-55
2022/01/24 06:37:25;;;;;;;25.20;15.18;;;;;;;-2.57;55.91;102439.06;5550199;32;33748;-55
2022/01/24 06:40:27;;;;;;;31.00;15.50;;;;;;;-2.69;56.31;102449.69;5550292;32;33638;-54
2022/01/24 06:43:30;;;;;;;29.35;14.95;;;;;;;-2.62;55.96;102452.59;5550152;32;34253;-55
2022/01/24 06:46:34;;;;;;;27.10;15.88;;;;;;;-2.57;55.70;102458.25;5550006;32;34331;-55
2022/01/24 06:49:36;;;;;;;25.65;14.73;;;;;;;-2.50;55.54;102461.13;5549874;32;34491;-55
2022/01/24 06:52:38;;;;;;;27.05;15.60;;;;;;;-2.56;56.05;102456.44;5549392;32;34325;-55
2022/01/24 06:55:41;;;;;;;27.20;14.20;;;;;;;-2.45;55.66;102469.41;5549726;32;33351;-55
2022/01/24 06:58:44;;;;;;;25.10;14.00;;;;;;;-2.48;58.10;102464.47;5549867;32;33336;-55
2022/01/24 07:01:46;;;;;;;23.70;15.32;;;;;;;-2.33;60.23;102470.06;5549879;32;34388;-55
2022/01/24 07:04:49;;;;;;;28.45;15.80;;;;;;;-2.28;55.18;102481.00;5551912;32;34303;-54
2022/01/24 07:07:56;;;;;;;26.55;14.80;;;;;;;-2.30;57.93;102477.66;5556981;32;33809;-56
2022/01/24 07:10:59;;;;;;;24.45;15.35;;;;;;;-2.21;56.55;102480.25;5568864;32;33703;-55
2022/01/24 07:14:06;;;;;;;27.67;15.20;;;;;;;-2.10;55.53;102483.66;5553878;32;33706;-55
2022/01/24 07:17:28;;;;;;;28.02;16.02;;;;;;;-2.04;54.88;102483.91;5568105;32;33636;-54
2022/01/24 07:20:35;;;;;;;26.65;15.45;;;;;;;-2.27;55.47;102491.34;5564174;32;34813;-55
2022/01/24 07:23:37;;;;;;;30.00;16.67;;;;;;;-2.02;53.84;102496.91;5562135;32;33678;-54
2022/01/24 07:26:40;;;;;;;32.15;16.87;;;;;;;-2.06;55.45;102499.00;5557385;32;33681;-55
2022/01/24 07:29:43;;;;;;;34.50;16.70;;;;;;;-2.27;55.01;102506.28;5568251;32;34411;-55
2022/01/24 07:32:45;;;;;;;31.05;16.08;;;;;;;-2.07;60.43;102507.87;5559977;32;33639;-55
2022/01/24 07:35:48;;;;;;;30.48;18.33;;;;;;;-2.04;56.78;102514.63;5554590;32;33656;-54
2022/01/24 07:38:51;;;;;;;26.98;16.58;;;;;;;-1.72;54.49;102516.84;5549292;32;34212;-55
2022/01/24 07:42:02;;;;;;;30.62;16.48;;;;;;;-1.75;54.21;102522.41;5552848;32;33730;-55
2022/01/24 07:45:04;;;;;;;33.50;16.62;;;;;;;-1.85;55.13;102530.31;5553764;32;33499;-56
2022/01/24 07:48:07;;;;;;;31.10;17.30;;;;;;;-1.64;54.98;102532.72;5564080;32;33596;-55
2022/01/24 07:51:10;;;;;;;33.13;18.73;;;;;;;-1.72;58.05;102535.25;5556533;32;33616;-54
2022/01/24 07:54:13;;;;;;;34.08;19.17;;;;;;;-1.62;55.33;102533.41;5563276;32;33606;-56
2022/01/24 07:57:16;;;;;;;37.45;21.50;;;;;;;-1.52;56.22;102531.53;5566454;32;33101;-56
2022/01/24 08:00:20;;;;;;;33.88;21.50;;;;;;;-1.33;57.03;102535.00;5561568;32;34054;-56
2022/01/24 08:03:23;;;;;;;32.78;20.48;;;;;;;-1.14;55.76;102540.16;5565829;32;33775;-55
2022/01/24 08:06:25;;;;;;;33.88;19.10;;;;;;;-1.04;54.48;102543.53;5567536;32;34330;-54
2022/01/24 08:09:27;;;;;;;29.40;18.87;;;;;;;-0.89;55.81;102545.63;5567680;32;34310;-55
2022/01/24 08:12:30;;;;;;;23.00;14.98;;;;;;;-0.74;53.99;102539.69;5567385;32;34207;-55
2022/01/24 08:15:33;;;;;;;24.58;12.07;;;;;;;-0.48;56.65;102539.72;5564379;32;35985;-55
2022/01/24 08:18:35;;;;;;;21.48;12.30;;;;;;;-0.14;52.04;102535.47;5562643;32;33694;-55
2022/01/24 08:21:37;;;;;;;16.75;10.15;;;;;;;0.20;52.92;102541.59;5564695;32;34347;-55
2022/01/24 08:24:39;;;;;;;18.85;10.32;;;;;;;1.28;69.66;102554.03;5567406;32;33631;-55
2022/01/24 08:27:42;;;;;;;16.75;10.10;;;;;;;2.03;50.78;102549.28;5569088;32;34307;-54
2022/01/24 08:30:45;;;;;;;18.75;9.88;;;;;;;1.64;46.21;102547.38;5568607;32;33638;-54
2022/01/24 08:33:48;;;;;;;14.48;9.23;;;;;;;1.11;47.57;102548.75;5568099;32;34563;-55
2022/01/24 08:36:51;;;;;;;17.90;11.05;;;;;;;1.30;62.45;102552.88;5555497;32;33854;-54
2022/01/24 08:39:56;;;;;;;14.20;8.90;;;;;;;2.22;61.80;102563.09;5548781;32;34433;-56
2022/01/24 08:43:11;;;;;;;;;;;;;;;2.66;64.72;102558.13;5553959;32;33635;-54
2022/01/24 08:46:13;;;;;;;17.15;10.15;;;;;;;1.54;44.92;102553.84;5568569;32;34019;-55
2022/01/24 08:49:16;;;;;;;17.37;9.68;;;;;;;1.86;59.84;102555.63;5567327;32;33286;-55
2022/01/24 08:52:20;;;;;;;19.30;10.00;;;;;;;1.95;45.16;102554.59;5566083;32;33815;-54
2022/01/24 08:55:43;;;;;;;18.55;9.88;;;;;;;1.39;44.71;102549.25;5563683;32;34266;-56
2022/01/24 08:58:45;;;;;;;17.60;9.38;;;;;;;1.53;46.39;102557.50;5562429;32;33655;-55
2022/01/24 09:01:47;;;;;;;18.35;9.13;;;;;;;0.87;45.68;102557.47;5566147;32;34210;-55
2022/01/24 09:04:50;;;;;;;15.13;9.52;;;;;;;0.82;46.82;102556.28;5566464;32;34415;-55
2022/01/24 09:07:53;;;;;;;17.95;10.32;;;;;;;1.21;46.66;102561.78;5566496;32;33887;-55
2022/01/24 09:10:56;;;;;;;16.25;8.68;;;;;;;1.24;48.48;102561.47;5567512;32;33732;-55
2022/01/24 09:13:58;;;;;;;15.77;9.45;;;;;;;1.02;44.76;102555.00;5567674;32;34194;-55
2022/01/24 09:17:01;;;;;;;14.45;8.85;;;;;;;1.16;45.21;102561.47;5567409;32;34307;-54
2022/01/24 09:20:05;;;;;;;22.50;9.85;;;;;;;1.33;61.12;102565.75;5564267;32;34178;-55
2022/01/24 09:23:18;;;;;;;18.33;9.98;;;;;;;2.15;58.79;102568.25;5552134;32;33634;-55
2022/01/24 09:26:20;;;;;;;15.10;8.88;;;;;;;1.82;51.50;102565.72;5563635;32;33701;-55
2022/01/24 09:29:22;;;;;;;15.00;8.93;;;;;;;2.11;62.69;102559.03;5559838;32;33711;-55
2022/01/24 09:32:27;;;;;;;15.15;9.07;;;;;;;2.44;53.76;102572.13;5567252;32;33603;-55
2022/01/24 09:35:29;;;;;;;14.63;8.23;;;;;;;1.87;42.68;102565.22;5567348;32;33763;-55
2022/01/24 09:38:34;;;;;;;17.58;9.13;;;;;;;1.60;42.42;102561.13;5567381;32;34025;-54
2022/01/24 09:41:42;;;;;;;13.50;8.40;;;;;;;1.56;43.65;102560.62;5566870;32;33700;-54
2022/01/24 09:45:06;;;;;;;13.60;8.48;;;;;;;1.33;43.89;102555.19;5567241;32;33587;-55
2022/01/24 09:48:11;;;;;;;14.05;9.05;;;;;;;1.14;43.66;102560.81;5566452;32;33665;-54
2022/01/24 09:51:13;;;;;;;17.70;10.43;;;;;;;1.56;45.52;102565.09;5567287;32;34235;-56
2022/01/24 09:54:16;;;;;;;14.95;9.15;;;;;;;1.65;44.07;102548.22;5565112;32;33347;-55
2022/01/24 09:57:19;;;;;;;14.52;8.15;;;;;;;1.79;49.50;102552.84;5568513;32;34207;-54
2022/01/24 10:00:26;;;;;;;16.70;9.75;;;;;;;2.04;43.12;102556.22;5567521;32;33565;-55
2022/01/24 10:03:28;;;;;;;16.27;7.68;;;;;;;1.90;43.58;102546.34;5561338;32;33682;-55
2022/01/24 10:07:01;;;;;;;13.65;8.35;;;;;;;2.28;42.84;102560.59;5552817;32;34390;-55
2022/01/24 10:10:04;;;;;;;15.45;9.25;;;;;;;2.10;42.18;102550.25;5555118;32;34404;-56
2022/01/24 10:16:45;;;;;;;12.85;7.15;;;;;;;2.43;61.94;102555.44;5568335;32;33750;-55
2022/01/24 10:19:47;;;;;;;11.82;6.97;;;;;;;2.91;39.84;102531.47;5565923;32;33575;-55
2022/01/24 10:23:07;;;;;;;15.32;8.05;;;;;;;3.42;55.38;102543.16;5568285;32;34397;-55
2022/01/24 10:26:10;;;;;;;12.88;7.57;;;;;;;3.21;51.71;102535.06;5559673;32;34279;-55
2022/01/24 10:29:14;;;;;;;14.05;6.62;;;;;;;3.36;40.75;102538.56;5565957;32;33687;-56
2022/01/24 10:32:40;;;;;;;12.85;8.48;;;;;;;3.03;39.73;102540.66;5563017;32;33696;-55
2022/01/24 10:35:46;;;;;;;15.77;7.57;;;;;;;3.10;41.78;102538.94;5567597;32;33196;-55
2022/01/24 10:38:55;;;;;;;22.13;8.07;;;;;;;3.08;40.53;102540.97;5557948;32;33822;-55
2022/01/24 10:45:32;;;;;;;13.57;7.93;;;;;;;3.50;56.16;102540.44;5549845;32;33398;-55
2022/01/24 10:48:39;;;;;;;14.60;8.20;;;;;;;3.25;39.49;102525.75;5555751;32;33729;-55
2022/01/24 10:51:47;;;;;;;12.80;8.43;;;;;;;3.09;41.38;102531.19;5554076;32;34239;-55
2022/01/24 10:55:11;;;;;;;12.68;6.55;;;;;;;2.80;40.75;102525.59;5551000;32;33382;-55
2022/01/24 10:58:18;;;;;;;12.18;7.25;;;;;;;2.46;42.08;102533.09;5559331;32;32420;-55
2022/01/24 11:01:26;;;;;;;11.55;6.90;;;;;;;2.86;39.43;102528.53;5554057;32;34400;-56
2022/01/24 11:04:30;;;;;;;13.40;6.87;;;;;;;2.51;39.27;102530.72;5549570;32;34275;-54
2022/01/24 11:07:49;;;;;;;12.37;6.97;;;;;;;2.39;38.45;102518.91;5553324;32;33663;-55
2022/01/24 11:10:52;;;;;;;15.15;7.35;;;;;;;2.63;53.34;102515.28;5551834;32;33284;-55
2022/01/24 11:13:59;;;;;;;13.65;7.78;;;;;;;3.11;39.38;102519.38;5550669;32;32534;-56
2022/01/24 11:17:03;;;;;;;10.73;6.93;;;;;;;2.88;41.11;102527.38;5556366;32;32318;-55
2022/01/24 11:20:09;;;;;;;11.90;6.75;;;;;;;2.99;37.87;102510.22;5553176;32;33414;-56
2022/01/24 11:23:12;;;;;;;11.82;6.15;;;;;;;3.01;40.38;102521.47;5558212;32;33355;-55
2022/01/24 11:26:15;;;;;;;11.00;6.50;;;;;;;3.49;50.80;102516.75;5562374;32;34287;-55
2022/01/24 11:29:20;;;;;;;14.65;7.37;;;;;;;3.85;53.37;102529.34;5568696;32;33771;-55
2022/01/24 11:32:28;;;;;;;15.00;7.32;;;;;;;4.02;57.40;102519.34;5568184;32;33717;-56
2022/01/24 11:35:41;;;;;;;12.35;6.82;;;;;;;4.17;48.68;102509.53;5560603;32;33628;-56
2022/01/24 11:38:45;;;;;;;13.60;7.50;;;;;;;3.91;36.51;102510.03;5548093;32;32972;-55
2022/01/24 11:41:49;;;;;;;15.45;8.63;;;;;;;3.87;44.28;102503.41;5565008;32;34249;-55
2022/01/24 11:44:52;;;;;;;12.07;6.50;;;;;;;4.21;38.74;102498.38;5567204;32;33679;-56
2022/01/24 11:48:13;;;;;;;14.32;7.30;;;;;;;4.31;37.53;102495.41;5565151;32;34039;-56
2022/01/24 11:51:16;;;;;;;11.50;6.78;;;;;;;3.92;45.16;102488.59;5555529;32;34404;-56
2022/01/24 11:54:32;;;;;;;12.00;6.82;;;;;;;4.16;42.57;102481.34;5568254;32;33729;-56
2022/01/24 11:57:47;;;;;;;9.85;7.12;;;;;;;3.88;44.66;102481.22;5565389;32;33710;-55
2022/01/24 12:00:52;;;;;;;12.55;7.05;;;;;;;4.37;50.03;102484.06;5568772;32;33614;-55
2022/01/24 12:03:56;;;;;;;9.38;6.15;;;;;;;4.60;43.61;102481.25;5568263;32;33769;-56
2022/01/24 12:07:25;;;;;;;10.88;6.10;;;;;;;4.50;51.89;102491.31;5567258;32;33684;-55
2022/01/24 12:10:34;;;;;;;10.15;6.40;;;;;;;4.71;48.40;102472.75;5563564;32;33792;-56
2022/01/24 12:13:43;;;;;;;11.20;7.10;;;;;;;4.05;37.36;102472.03;5564175;32;33881;-56
2022/01/24 12:16:46;;;;;;;11.55;6.35;;;;;;;3.42;37.54;102460.16;5556489;32;33664;-56
2022/01/24 12:19:49;;;;;;;13.20;5.75;;;;;;;3.48;46.50;102460.25;5556566;32;33707;-55
2022/01/24 12:22:51;;;;;;;8.90;5.43;;;;;;;4.30;41.66;102463.72;5568095;32;34399;-54
2022/01/24 12:26:02;;;;;;;11.95;6.10;;;;;;;4.75;39.53;102459.91;5561008;32;33829;-55
2022/01/24 12:29:08;;;;;;;9.32;6.05;;;;;;;4.84;43.76;102460.63;5554355;32;33630;-56
2022/01/24 12:32:24;;;;;;;9.32;5.75;;;;;;;4.54;43.14;102455.44;5565955;32;33855;-55
2022/01/24 12:35:28;;;;;;;12.63;5.72;;;;;;;5.04;50.20;102458.94;5566952;32;34057;-55
2022/01/24 12:38:51;;;;;;;9.57;5.80;;;;;;;4.94;47.75;102469.09;5564858;32;33313;-55
2022/01/24 12:41:59;;;;;;;12.65;5.93;;;;;;;5.18;34.44;102462.53;5556949;32;33806;-55
2022/01/24 12:48:35;;;;;;;9.15;5.40;;;;;;;4.62;33.72;102444.66;5562073;32;33635;-56
2022/01/24 12:51:38;;;;;;;11.20;5.93;;;;;;;4.40;40.73;102451.81;5563809;32;33706;-56
2022/01/24 12:54:46;;;;;;;12.13;5.72;;;;;;;4.86;51.87;102450.59;5566905;32;33696;-56
2022/01/24 12:57:50;;;;;;;12.80;6.37;;;;;;;5.09;42.93;102442.41;5562933;32;33687;-56
2022/01/24 13:00:52;;;;;;;12.18;6.28;;;;;;;4.87;33.78;102441.62;5566610;32;33854;-56
2022/01/24 13:03:58;;;;;;;12.93;6.55;;;;;;;4.31;33.61;102433.53;5565985;32;33266;-56
2022/01/24 13:07:00;;;;;;;8.05;5.87;;;;;;;4.16;34.36;102445.00;5560245;32;33724;-56
2022/01/24 13:10:06;;;;;;;10.00;6.62;;;;;;;4.02;36.09;102448.50;5563849;32;34060;-56
2022/01/24 13:13:13;;;;;;;;;;;;;;;4.29;35.88;102454.94;5567285;32;33667;-55
2022/01/24 13:23:06;;;;;;;13.60;6.95;;;;;;;4.06;34.33;102439.16;5561659;32;33632;-56
2022/01/24 13:26:11;;;;;;;10.95;7.15;;;;;;;3.96;34.58;102434.16;5568294;32;34317;-56
2022/01/24 13:29:13;;;;;;;22.58;7.62;;;;;;;4.02;36.26;102434.44;5568394;32;33714;-56
2022/01/24 13:32:16;;;;;;;14.20;7.07;;;;;;;4.25;37.61;102440.41;5567652;32;33627;-56
2022/01/24 13:35:22;;;;;;;12.90;7.40;;;;;;;4.06;36.37;102436.50;5564232;32;34223;-56
2022/01/24 13:38:27;;;;;;;11.93;7.37;;;;;;;4.39;37.61;102444.03;5567360;32;33291;-56
2022/01/24 13:41:29;;;;;;;15.05;7.72;;;;;;;4.19;36.29;102443.81;5568700;32;34377;-56
2022/01/24 13:44:32;;;;;;;11.48;7.50;;;;;;;3.95;36.22;102445.78;5568316;32;33337;-56
2022/01/24 13:47:34;;;;;;;11.95;7.65;;;;;;;3.79;35.97;102451.28;5565289;32;34306;-55
2022/01/24 13:50:36;;;;;;;12.70;7.68;;;;;;;3.90;36.34;102449.97;5570365;32;33730;-56
2022/01/24 13:53:48;;;;;;;14.48;7.93;;;;;;;3.76;36.24;102441.84;5569538;32;33647;-55
2022/01/24 13:56:55;;;;;;;14.48;7.90;;;;;;;3.66;36.69;102438.66;5556089;32;33805;-56
2022/01/24 14:00:06;;;;;;;14.15;7.93;;;;;;;3.81;44.70;102440.47;5569064;32;33753;-56
2022/01/24 14:03:13;;;;;;;17.12;8.15;;;;;;;3.81;37.01;102433.34;5565955;32;35272;-56
2022/01/24 14:06:30;;;;;;;14.35;8.65;;;;;;;3.91;50.30;102438.38;5569577;32;33651;-55
2022/01/24 14:09:40;;;;;;;13.68;8.30;;;;;;;3.77;37.00;102442.66;5569453;32;34500;-55
2022/01/24 14:12:48;;;;;;;13.10;8.45;;;;;;;3.77;37.36;102437.38;5569399;32;33653;-56
2022/01/24 14:15:59;;;;;;;16.42;9.65;;;;;;;3.76;37.14;102444.50;5569324;32;34340;-56
2022/01/24 14:19:03;;;;;;;16.77;9.13;;;;;;;3.60;38.02;102442.03;5569070;32;33650;-55
2022/01/24 14:22:09;;;;;;;17.48;9.18;;;;;;;3.81;38.23;102436.00;5569234;32;33605;-56
2022/01/24 14:25:19;;;;;;;17.08;9.45;;;;;;;3.78;43.39;102438.22;5568146;32;34475;-55
2022/01/24 14:28:23;;;;;;;15.23;9.63;;;;;;;3.72;40.81;102439.75;5566691;32;31906;-55
2022/01/24 14:31:26;;;;;;;19.08;9.30;;;;;;;3.84;38.40;102440.09;5569111;32;33649;-55
2022/01/24 14:34:28;;;;;;;14.52;9.30;;;;;;;3.70;38.29;102434.63;5569240;32;34439;-56
2022/01/24 14:37:51;;;;;;;16.35;10.18;;;;;;;3.72;38.71;102432.63;5568598;32;33607;-55
2022/01/24 14:40:57;;;;;;;16.10;10.07;;;;;;;3.52;39.71;102436.84;5568644;32;33718;-56
2022/01/24 14:47:24;;;;;;;22.75;10.30;;;;;;;3.40;40.28;102430.34;5569097;32;33688;-56
2022/01/24 14:50:26;;;;;;;20.95;10.30;;;;;;;3.47;41.57;102426.75;5569173;32;33659;-55
2022/01/24 14:53:29;;;;;;;14.20;9.52;;;;;;;3.39;41.57;102426.03;5567952;32;34368;-56
2022/01/24 14:56:34;;;;;;;16.25;10.65;;;;;;;3.50;41.90;102422.94;5569138;32;33457;-56
2022/01/24 14:59:42;;;;;;;26.52;11.85;;;;;;;3.60;40.21;102428.78;5567223;32;33482;-56
2022/01/24 15:02:44;;;;;;;16.50;9.75;;;;;;;3.55;41.52;102427.69;5568093;32;34351;-55
2022/01/24 15:05:46;;;;;;;25.12;10.82;;;;;;;3.66;41.11;102429.87;5568873;32;34235;-55
2022/01/24 15:08:51;;;;;;;19.12;11.00;;;;;;;3.65;40.53;102426.41;5569507;32;34420;-56
2022/01/24 15:11:55;;;;;;;20.75;11.55;;;;;;;3.69;42.18;102430.34;5569446;32;33662;-55
2022/01/24 15:15:00;;;;;;;23.52;12.65;;;;;;;3.58;44.41;102433.47;5568596;32;34334;-55
2022/01/24 15:25:18;;;;;;;31.17;13.40;;;;;;;3.44;42.11;102445.69;5568639;32;33966;-55
2022/01/24 15:28:01;;;;;;;23.62;13.65;;;;;;;3.67;42.96;102445.59;5548662;32;33799;-55
2022/01/24 15:31:03;;;;;;;26.85;14.98;;;;;;;3.58;40.77;102446.72;5554719;32;33771;-56
2022/01/24 15:34:05;;;;;;;21.98;14.15;;;;;;;3.39;41.60;102441.97;5569042;32;33294;-56
2022/01/24 15:37:09;;;;;;;26.30;15.30;;;;;;;3.23;41.56;102446.41;5568567;32;33216;-55
2022/01/24 15:40:12;;;;;;;35.65;15.27;;;;;;;3.37;41.79;102441.31;5568455;32;34433;-55
2022/01/24 15:46:48;;;;;;;25.33;14.50;;;;;;;3.34;42.08;102453.09;5568035;32;33683;-55
2022/01/24 15:49:47;;;;;;;20.10;12.65;;;;;;;3.17;41.51;102451.59;5567548;32;34299;-55
2022/01/24 15:52:51;;;;;;;22.73;13.25;;;;;;;2.87;50.37;102443.59;5568906;32;33311;-55
2022/01/24 15:59:14;;;;;;;24.30;16.08;;;;;;;3.10;42.80;102450.69;5569137;32;32026;-55
2022/01/24 16:02:16;;;;;;;29.10;15.40;;;;;;;3.02;42.59;102462.19;5568595;32;33580;-55
2022/01/24 16:05:22;;;;;;;25.42;15.90;;;;;;;2.85;47.95;102458.00;5561568;32;32087;-55
2022/01/24 16:08:24;;;;;;;32.83;17.87;;;;;;;2.85;42.44;102452.69;5567498;32;32496;-55
2022/01/24 16:11:26;;;;;;;23.25;16.08;;;;;;;2.83;42.60;102460.84;5567105;32;33637;-55
2022/01/24 16:14:48;;;;;;;27.58;16.85;;;;;;;2.75;45.57;102459.09;5569042;32;33847;-55
2022/01/24 16:17:52;;;;;;;28.05;15.25;;;;;;;2.62;44.04;102463.34;5568246;32;33789;-55
2022/01/24 16:25:21;;;;;;;29.92;16.92;;;;;;;2.57;42.94;102469.12;5566522;32;33787;-55
2022/01/24 16:27:28;;;;;;;30.00;17.37;;;;;;;2.64;43.35;102475.38;5567912;32;34374;-55
2022/01/24 16:30:31;;;;;;;29.65;15.35;;;;;;;2.34;43.67;102469.94;5568359;32;34314;-55
2022/01/24 16:33:35;;;;;;;30.37;17.70;;;;;;;2.29;50.15;102472.28;5568751;32;33680;-55
2022/01/24 16:36:37;;;;;;;26.87;17.42;;;;;;;2.20;44.45;102483.09;5568143;32;33789;-55
2022/01/24 16:39:39;;;;;;;77.72;47.42;;;;;;;2.07;44.71;102489.75;5568640;32;33313;-55
